ベイルート の空港の天気 - METARとTAF

ラフィク・ハリリ国際空港 ( OLBA / BEY ) - レバノン ベイルート
飛行場実況気象(Metar)
観測時間01/16 21:00 EET (01/16 19:00 UTC)
風向・風速北北東 6m/s
視程10km以上
天気現象
なし
気温11℃
湿度28%
気圧1018hPa
METAROLBA 161900Z 02012KT 360V070 CAVOK 11/M07 Q1018 NOSIG
過去の天気等 Google飛行場航空写真 Wunderground天気予報

過去48時間のMETAR

飛行場予報(TAF)
発表時間: 1/16 18:00 EET (1/16 16:00 UTC)
予報対象時間: 16日20時 EET ~ 18日2時 EET
風向・風速東 3m/s
視程8000m
17日8時 EET ~ 17日10時 EET に徐々に
風向・風速北 5m/s
17日20時 EET ~ 17日22時 EET に徐々に
風向・風速南東 2m/s
TAF OLBA 161600Z 1618/1724 10005KT 8000 CAVOK
BECMG 1706/1708 35010KT
BECMG 1718/1720 13003KT